sensor_id;sensor_type;location;lat;lon;timestamp;temperature;humidity
44431;DHT22;30135;47.866;-4.222;2022-09-09T00:00:20;18.30;93.60
44431;DHT22;30135;47.866;-4.222;2022-09-09T00:06:12;18.30;93.60
44431;DHT22;30135;47.866;-4.222;2022-09-09T00:12:12;18.30;93.60
44431;DHT22;30135;47.866;-4.222;2022-09-09T00:14:56;18.30;93.60
44431;DHT22;30135;47.866;-4.222;2022-09-09T00:21:18;18.30;93.60
44431;DHT22;30135;47.866;-4.222;2022-09-09T00:24:41;18.30;93.70
44431;DHT22;30135;47.866;-4.222;2022-09-09T00:27:32;18.30;93.60
44431;DHT22;30135;47.866;-4.222;2022-09-09T00:33:25;18.20;93.60
44431;DHT22;30135;47.866;-4.222;2022-09-09T00:36:07;18.20;93.60
44431;DHT22;30135;47.866;-4.222;2022-09-09T00:38:49;18.30;93.60
44431;DHT22;30135;47.866;-4.222;2022-09-09T00:44:34;18.20;93.60
44431;DHT22;30135;47.866;-4.222;2022-09-09T00:51:08;18.20;93.50
44431;DHT22;30135;47.866;-4.222;2022-09-09T00:54:31;18.20;93.50
44431;DHT22;30135;47.866;-4.222;2022-09-09T00:57:49;18.20;93.50
44431;DHT22;30135;47.866;-4.222;2022-09-09T01:00:50;18.20;93.50
44431;DHT22;30135;47.866;-4.222;2022-09-09T01:03:56;18.20;93.60
44431;DHT22;30135;47.866;-4.222;2022-09-09T01:06:37;18.20;93.60
44431;DHT22;30135;47.866;-4.222;2022-09-09T01:12:15;18.20;93.60
44431;DHT22;30135;47.866;-4.222;2022-09-09T01:15:08;18.20;93.60
44431;DHT22;30135;47.866;-4.222;2022-09-09T01:20:29;18.20;93.60
44431;DHT22;30135;47.866;-4.222;2022-09-09T01:28:57;18.20;93.60
44431;DHT22;30135;47.866;-4.222;2022-09-09T01:31:30;18.20;93.60
44431;DHT22;30135;47.866;-4.222;2022-09-09T01:33:59;18.20;93.60
44431;DHT22;30135;47.866;-4.222;2022-09-09T01:37:31;18.20;93.60
44431;DHT22;30135;47.866;-4.222;2022-09-09T01:39:34;18.20;93.60
44431;DHT22;30135;47.866;-4.222;2022-09-09T01:42:03;18.10;93.60
44431;DHT22;30135;47.866;-4.222;2022-09-09T01:44:31;18.10;93.50
44431;DHT22;30135;47.866;-4.222;2022-09-09T01:46:58;18.10;93.50
44431;DHT22;30135;47.866;-4.222;2022-09-09T01:52:54;18.10;93.50
44431;DHT22;30135;47.866;-4.222;2022-09-09T01:55:44;18.10;93.60
44431;DHT22;30135;47.866;-4.222;2022-09-09T02:01:46;18.10;93.60
44431;DHT22;30135;47.866;-4.222;2022-09-09T02:07:40;18.10;93.60
44431;DHT22;30135;47.866;-4.222;2022-09-09T02:10:21;18.10;93.60
44431;DHT22;30135;47.866;-4.222;2022-09-09T02:13:07;18.10;93.50
44431;DHT22;30135;47.866;-4.222;2022-09-09T02:15:42;18.10;93.90
44431;DHT22;30135;47.866;-4.222;2022-09-09T02:18:13;18.10;93.60
44431;DHT22;30135;47.866;-4.222;2022-09-09T02:20:43;18.10;93.60
44431;DHT22;30135;47.866;-4.222;2022-09-09T02:23:11;18.10;93.60
44431;DHT22;30135;47.866;-4.222;2022-09-09T02:25:40;18.10;93.60
44431;DHT22;30135;47.866;-4.222;2022-09-09T02:28:11;18.10;93.60
44431;DHT22;30135;47.866;-4.222;2022-09-09T02:30:43;18.10;93.50
44431;DHT22;30135;47.866;-4.222;2022-09-09T02:33:14;18.10;93.50
44431;DHT22;30135;47.866;-4.222;2022-09-09T02:35:42;18.10;93.50
44431;DHT22;30135;47.866;-4.222;2022-09-09T02:38:14;18.20;93.60
44431;DHT22;30135;47.866;-4.222;2022-09-09T02:40:43;18.10;93.50
44431;DHT22;30135;47.866;-4.222;2022-09-09T02:43:13;18.10;93.50
44431;DHT22;30135;47.866;-4.222;2022-09-09T02:49:09;18.10;93.60
44431;DHT22;30135;47.866;-4.222;2022-09-09T02:52:01;18.10;93.50
44431;DHT22;30135;47.866;-4.222;2022-09-09T02:54:35;18.10;93.50
44431;DHT22;30135;47.866;-4.222;2022-09-09T02:59:49;18.10;93.50
44431;DHT22;30135;47.866;-4.222;2022-09-09T03:02:18;18.10;93.50
44431;DHT22;30135;47.866;-4.222;2022-09-09T03:04:48;18.10;93.50
44431;DHT22;30135;47.866;-4.222;2022-09-09T03:07:18;18.10;93.50
44431;DHT22;30135;47.866;-4.222;2022-09-09T03:09:46;18.10;93.50
44431;DHT22;30135;47.866;-4.222;2022-09-09T03:12:13;18.10;93.50
44431;DHT22;30135;47.866;-4.222;2022-09-09T03:14:40;18.10;93.50
44431;DHT22;30135;47.866;-4.222;2022-09-09T03:17:08;18.10;93.50
44431;DHT22;30135;47.866;-4.222;2022-09-09T03:19:34;18.10;93.50
44431;DHT22;30135;47.866;-4.222;2022-09-09T03:22:03;18.10;93.50
44431;DHT22;30135;47.866;-4.222;2022-09-09T03:24:31;18.20;93.60
44431;DHT22;30135;47.866;-4.222;2022-09-09T03:26:59;18.10;93.60
44431;DHT22;30135;47.866;-4.222;2022-09-09T03:29:26;18.10;93.60
44431;DHT22;30135;47.866;-4.222;2022-09-09T03:31:53;18.20;93.60
44431;DHT22;30135;47.866;-4.222;2022-09-09T03:34:20;18.10;93.60
44431;DHT22;30135;47.866;-4.222;2022-09-09T03:36:47;18.20;93.60
44431;DHT22;30135;47.866;-4.222;2022-09-09T03:39:17;18.20;93.60
44431;DHT22;30135;47.866;-4.222;2022-09-09T03:41:43;18.20;93.60
44431;DHT22;30135;47.866;-4.222;2022-09-09T03:44:14;18.20;93.60
44431;DHT22;30135;47.866;-4.222;2022-09-09T03:46:43;18.20;93.60
44431;DHT22;30135;47.866;-4.222;2022-09-09T03:49:10;18.20;93.70
44431;DHT22;30135;47.866;-4.222;2022-09-09T03:51:40;18.20;93.60
44431;DHT22;30135;47.866;-4.222;2022-09-09T03:54:09;18.20;93.60
44431;DHT22;30135;47.866;-4.222;2022-09-09T03:56:36;18.10;93.60
44431;DHT22;30135;47.866;-4.222;2022-09-09T03:59:04;18.10;93.60
44431;DHT22;30135;47.866;-4.222;2022-09-09T04:01:31;18.10;93.60
44431;DHT22;30135;47.866;-4.222;2022-09-09T04:04:00;18.20;93.70
44431;DHT22;30135;47.866;-4.222;2022-09-09T04:06:28;18.20;93.70
44431;DHT22;30135;47.866;-4.222;2022-09-09T04:08:56;18.20;94.10
44431;DHT22;30135;47.866;-4.222;2022-09-09T04:11:23;18.20;93.70
44431;DHT22;30135;47.866;-4.222;2022-09-09T04:13:50;18.20;93.70
44431;DHT22;30135;47.866;-4.222;2022-09-09T04:16:17;18.20;93.70
44431;DHT22;30135;47.866;-4.222;2022-09-09T04:18:45;18.20;93.70
44431;DHT22;30135;47.866;-4.222;2022-09-09T04:21:13;18.20;94.10
44431;DHT22;30135;47.866;-4.222;2022-09-09T04:23:43;18.20;93.70
44431;DHT22;30135;47.866;-4.222;2022-09-09T04:26:11;18.10;93.70
44431;DHT22;30135;47.866;-4.222;2022-09-09T04:28:39;18.20;93.70
44431;DHT22;30135;47.866;-4.222;2022-09-09T04:31:18;18.20;93.70
44431;DHT22;30135;47.866;-4.222;2022-09-09T04:33:48;18.20;93.70
44431;DHT22;30135;47.866;-4.222;2022-09-09T04:36:17;18.20;93.70
44431;DHT22;30135;47.866;-4.222;2022-09-09T04:38:46;18.10;93.70
44431;DHT22;30135;47.866;-4.222;2022-09-09T04:41:15;18.10;93.70
44431;DHT22;30135;47.866;-4.222;2022-09-09T04:43:44;18.10;93.70
44431;DHT22;30135;47.866;-4.222;2022-09-09T04:46:13;18.10;93.80
44431;DHT22;30135;47.866;-4.222;2022-09-09T04:48:43;18.10;93.70
44431;DHT22;30135;47.866;-4.222;2022-09-09T04:51:13;18.10;93.70
44431;DHT22;30135;47.866;-4.222;2022-09-09T04:53:41;18.10;93.70
44431;DHT22;30135;47.866;-4.222;2022-09-09T04:56:14;18.10;93.70
44431;DHT22;30135;47.866;-4.222;2022-09-09T04:58:42;18.10;93.70
44431;DHT22;30135;47.866;-4.222;2022-09-09T05:01:17;18.10;93.70
44431;DHT22;30135;47.866;-4.222;2022-09-09T05:03:47;18.10;93.70
44431;DHT22;30135;47.866;-4.222;2022-09-09T05:06:17;18.10;93.60
44431;DHT22;30135;47.866;-4.222;2022-09-09T05:08:45;18.10;93.60
44431;DHT22;30135;47.866;-4.222;2022-09-09T05:13:47;18.10;93.60
44431;DHT22;30135;47.866;-4.222;2022-09-09T05:16:16;18.10;93.70
44431;DHT22;30135;47.866;-4.222;2022-09-09T05:18:43;18.10;93.60
44431;DHT22;30135;47.866;-4.222;2022-09-09T05:21:12;18.10;93.60
44431;DHT22;30135;47.866;-4.222;2022-09-09T05:23:41;18.10;93.60
44431;DHT22;30135;47.866;-4.222;2022-09-09T05:26:17;18.10;93.60
44431;DHT22;30135;47.866;-4.222;2022-09-09T05:28:46;18.00;93.50
44431;DHT22;30135;47.866;-4.222;2022-09-09T05:31:15;18.10;93.60
44431;DHT22;30135;47.866;-4.222;2022-09-09T05:33:44;18.00;93.50
44431;DHT22;30135;47.866;-4.222;2022-09-09T05:36:14;18.00;93.50
44431;DHT22;30135;47.866;-4.222;2022-09-09T05:38:45;18.00;93.50
44431;DHT22;30135;47.866;-4.222;2022-09-09T05:41:13;18.00;93.40
44431;DHT22;30135;47.866;-4.222;2022-09-09T05:43:45;18.00;93.40
44431;DHT22;30135;47.866;-4.222;2022-09-09T05:46:21;18.00;93.40
44431;DHT22;30135;47.866;-4.222;2022-09-09T05:48:52;18.00;93.40
44431;DHT22;30135;47.866;-4.222;2022-09-09T05:51:21;18.00;93.40
44431;DHT22;30135;47.866;-4.222;2022-09-09T05:53:50;18.00;93.40
44431;DHT22;30135;47.866;-4.222;2022-09-09T05:56:22;18.00;93.40
44431;DHT22;30135;47.866;-4.222;2022-09-09T05:58:51;18.00;93.30
44431;DHT22;30135;47.866;-4.222;2022-09-09T06:01:21;18.00;93.30
44431;DHT22;30135;47.866;-4.222;2022-09-09T06:04:07;18.00;93.30
44431;DHT22;30135;47.866;-4.222;2022-09-09T06:06:36;18.00;93.40
44431;DHT22;30135;47.866;-4.222;2022-09-09T06:09:08;18.00;93.40
44431;DHT22;30135;47.866;-4.222;2022-09-09T06:11:38;18.00;93.30
44431;DHT22;30135;47.866;-4.222;2022-09-09T06:14:08;18.00;93.30
44431;DHT22;30135;47.866;-4.222;2022-09-09T06:16:35;18.00;93.40
44431;DHT22;30135;47.866;-4.222;2022-09-09T06:19:04;18.00;93.40
44431;DHT22;30135;47.866;-4.222;2022-09-09T06:21:33;18.00;93.40
44431;DHT22;30135;47.866;-4.222;2022-09-09T06:24:05;18.00;93.40
44431;DHT22;30135;47.866;-4.222;2022-09-09T06:26:39;18.00;93.40
44431;DHT22;30135;47.866;-4.222;2022-09-09T06:29:08;18.00;93.50
44431;DHT22;30135;47.866;-4.222;2022-09-09T06:31:38;18.00;93.50
44431;DHT22;30135;47.866;-4.222;2022-09-09T06:34:06;18.00;93.50
44431;DHT22;30135;47.866;-4.222;2022-09-09T06:36:35;18.00;93.50
44431;DHT22;30135;47.866;-4.222;2022-09-09T06:39:03;18.00;93.50
44431;DHT22;30135;47.866;-4.222;2022-09-09T06:41:31;18.00;93.50
44431;DHT22;30135;47.866;-4.222;2022-09-09T06:44:04;18.00;93.50
44431;DHT22;30135;47.866;-4.222;2022-09-09T06:46:32;18.00;93.50
44431;DHT22;30135;47.866;-4.222;2022-09-09T06:49:01;18.00;93.60
44431;DHT22;30135;47.866;-4.222;2022-09-09T06:51:31;18.00;93.60
44431;DHT22;30135;47.866;-4.222;2022-09-09T06:54:01;18.10;93.70
44431;DHT22;30135;47.866;-4.222;2022-09-09T06:56:31;18.10;93.70
44431;DHT22;30135;47.866;-4.222;2022-09-09T06:59:01;18.10;93.70
44431;DHT22;30135;47.866;-4.222;2022-09-09T07:01:32;18.10;93.70
44431;DHT22;30135;47.866;-4.222;2022-09-09T07:04:00;18.10;93.70
44431;DHT22;30135;47.866;-4.222;2022-09-09T07:06:37;18.10;93.70
44431;DHT22;30135;47.866;-4.222;2022-09-09T07:09:10;18.10;93.70
44431;DHT22;30135;47.866;-4.222;2022-09-09T07:11:51;18.10;93.80
44431;DHT22;30135;47.866;-4.222;2022-09-09T07:14:30;18.10;93.80
44431;DHT22;30135;47.866;-4.222;2022-09-09T07:16:57;18.10;93.80
44431;DHT22;30135;47.866;-4.222;2022-09-09T07:19:23;18.10;93.80
44431;DHT22;30135;47.866;-4.222;2022-09-09T07:21:50;18.10;93.80
44431;DHT22;30135;47.866;-4.222;2022-09-09T07:24:21;18.20;93.80
44431;DHT22;30135;47.866;-4.222;2022-09-09T07:26:51;18.20;93.80
44431;DHT22;30135;47.866;-4.222;2022-09-09T07:29:22;18.20;93.90
44431;DHT22;30135;47.866;-4.222;2022-09-09T07:31:55;18.20;93.90
44431;DHT22;30135;47.866;-4.222;2022-09-09T07:34:23;18.20;93.90
44431;DHT22;30135;47.866;-4.222;2022-09-09T07:36:51;18.30;93.90
44431;DHT22;30135;47.866;-4.222;2022-09-09T07:39:17;18.20;93.70
44431;DHT22;30135;47.866;-4.222;2022-09-09T07:41:47;18.30;93.60
44431;DHT22;30135;47.866;-4.222;2022-09-09T07:44:20;18.20;93.50
44431;DHT22;30135;47.866;-4.222;2022-09-09T07:46:50;18.20;93.50
44431;DHT22;30135;47.866;-4.222;2022-09-09T07:49:22;18.20;93.50
44431;DHT22;30135;47.866;-4.222;2022-09-09T07:51:49;18.10;93.40
44431;DHT22;30135;47.866;-4.222;2022-09-09T07:54:24;18.10;93.50
44431;DHT22;30135;47.866;-4.222;2022-09-09T07:56:52;18.10;93.50
44431;DHT22;30135;47.866;-4.222;2022-09-09T07:59:19;18.10;93.50
44431;DHT22;30135;47.866;-4.222;2022-09-09T08:01:51;18.10;93.60
44431;DHT22;30135;47.866;-4.222;2022-09-09T08:04:22;18.10;93.70
44431;DHT22;30135;47.866;-4.222;2022-09-09T08:06:58;18.10;93.80
44431;DHT22;30135;47.866;-4.222;2022-09-09T08:09:28;18.10;93.80
44431;DHT22;30135;47.866;-4.222;2022-09-09T08:11:56;18.10;93.80
44431;DHT22;30135;47.866;-4.222;2022-09-09T08:14:27;18.10;93.80
44431;DHT22;30135;47.866;-4.222;2022-09-09T08:16:54;18.10;93.90
44431;DHT22;30135;47.866;-4.222;2022-09-09T08:19:21;18.10;93.90
44431;DHT22;30135;47.866;-4.222;2022-09-09T08:21:47;18.10;93.90
44431;DHT22;30135;47.866;-4.222;2022-09-09T08:24:15;18.20;94.00
44431;DHT22;30135;47.866;-4.222;2022-09-09T08:26:43;18.20;94.10
44431;DHT22;30135;47.866;-4.222;2022-09-09T08:29:12;18.30;94.20
44431;DHT22;30135;47.866;-4.222;2022-09-09T08:31:48;18.20;94.20
44431;DHT22;30135;47.866;-4.222;2022-09-09T08:34:21;18.20;94.20
44431;DHT22;30135;47.866;-4.222;2022-09-09T08:36:48;18.30;94.30
44431;DHT22;30135;47.866;-4.222;2022-09-09T08:39:20;18.30;94.40
44431;DHT22;30135;47.866;-4.222;2022-09-09T08:45:25;18.40;94.60
44431;DHT22;30135;47.866;-4.222;2022-09-09T08:48:09;18.50;94.60
44431;DHT22;30135;47.866;-4.222;2022-09-09T08:50:56;18.40;94.60
44431;DHT22;30135;47.866;-4.222;2022-09-09T08:53:38;18.50;94.60
44431;DHT22;30135;47.866;-4.222;2022-09-09T08:56:13;18.50;94.60
44431;DHT22;30135;47.866;-4.222;2022-09-09T08:58:50;18.50;94.60
44431;DHT22;30135;47.866;-4.222;2022-09-09T09:12:56;18.70;94.70
44431;DHT22;30135;47.866;-4.222;2022-09-09T09:15:26;18.70;94.60
44431;DHT22;30135;47.866;-4.222;2022-09-09T09:17:58;18.70;94.70
44431;DHT22;30135;47.866;-4.222;2022-09-09T09:23:57;18.80;94.60
44431;DHT22;30135;47.866;-4.222;2022-09-09T09:26:31;18.80;94.60
44431;DHT22;30135;47.866;-4.222;2022-09-09T09:29:14;18.80;94.60
44431;DHT22;30135;47.866;-4.222;2022-09-09T09:34:18;18.90;94.50
44431;DHT22;30135;47.866;-4.222;2022-09-09T09:36:52;18.90;94.50
44431;DHT22;30135;47.866;-4.222;2022-09-09T09:39:28;18.90;94.40
44431;DHT22;30135;47.866;-4.222;2022-09-09T09:41:56;18.90;94.40
44431;DHT22;30135;47.866;-4.222;2022-09-09T09:47:06;18.90;94.30
44431;DHT22;30135;47.866;-4.222;2022-09-09T09:49:33;19.00;94.30
44431;DHT22;30135;47.866;-4.222;2022-09-09T09:52:04;19.00;94.30
44431;DHT22;30135;47.866;-4.222;2022-09-09T09:54:38;19.00;94.10
44431;DHT22;30135;47.866;-4.222;2022-09-09T09:57:13;19.10;94.10
44431;DHT22;30135;47.866;-4.222;2022-09-09T09:59:41;19.10;94.00
44431;DHT22;30135;47.866;-4.222;2022-09-09T10:02:25;19.10;93.90
44431;DHT22;30135;47.866;-4.222;2022-09-09T10:05:04;19.20;93.70
44431;DHT22;30135;47.866;-4.222;2022-09-09T10:07:32;19.20;93.50
44431;DHT22;30135;47.866;-4.222;2022-09-09T10:10:00;19.20;93.50
44431;DHT22;30135;47.866;-4.222;2022-09-09T10:21:04;19.30;93.20
44431;DHT22;30135;47.866;-4.222;2022-09-09T10:26:42;19.40;92.90
44431;DHT22;30135;47.866;-4.222;2022-09-09T10:36:17;19.40;92.50
44431;DHT22;30135;47.866;-4.222;2022-09-09T10:39:03;19.40;92.50
44431;DHT22;30135;47.866;-4.222;2022-09-09T10:42:12;19.50;92.20
44431;DHT22;30135;47.866;-4.222;2022-09-09T10:45:21;19.40;92.10
44431;DHT22;30135;47.866;-4.222;2022-09-09T10:58:10;19.60;90.70
44431;DHT22;30135;47.866;-4.222;2022-09-09T11:01:23;19.60;91.10
44431;DHT22;30135;47.866;-4.222;2022-09-09T11:04:50;19.70;90.60
44431;DHT22;30135;47.866;-4.222;2022-09-09T11:08:21;19.80;90.10
44431;DHT22;30135;47.866;-4.222;2022-09-09T11:11:17;19.80;89.90
44431;DHT22;30135;47.866;-4.222;2022-09-09T11:15:23;19.80;87.70
44431;DHT22;30135;47.866;-4.222;2022-09-09T11:18:30;19.80;85.90
44431;DHT22;30135;47.866;-4.222;2022-09-09T11:21:19;19.90;87.30
44431;DHT22;30135;47.866;-4.222;2022-09-09T11:24:17;19.90;85.00
44431;DHT22;30135;47.866;-4.222;2022-09-09T11:31:10;19.90;83.10
44431;DHT22;30135;47.866;-4.222;2022-09-09T11:40:26;20.00;80.50
44431;DHT22;30135;47.866;-4.222;2022-09-09T11:46:15;20.00;79.40
44431;DHT22;30135;47.866;-4.222;2022-09-09T11:48:46;20.00;78.30
44431;DHT22;30135;47.866;-4.222;2022-09-09T11:51:34;20.10;78.60
44431;DHT22;30135;47.866;-4.222;2022-09-09T11:54:32;20.10;78.30
44431;DHT22;30135;47.866;-4.222;2022-09-09T11:57:25;20.20;77.80
44431;DHT22;30135;47.866;-4.222;2022-09-09T11:59:58;20.20;78.20
44431;DHT22;30135;47.866;-4.222;2022-09-09T12:02:47;20.30;78.90
44431;DHT22;30135;47.866;-4.222;2022-09-09T12:05:18;20.30;79.20
44431;DHT22;30135;47.866;-4.222;2022-09-09T12:07:57;20.40;79.10
44431;DHT22;30135;47.866;-4.222;2022-09-09T12:13:09;20.50;79.30
44431;DHT22;30135;47.866;-4.222;2022-09-09T12:15:51;20.60;79.10
44431;DHT22;30135;47.866;-4.222;2022-09-09T12:18:37;20.60;79.10
44431;DHT22;30135;47.866;-4.222;2022-09-09T12:26:47;20.80;79.50
44431;DHT22;30135;47.866;-4.222;2022-09-09T12:29:28;20.80;79.90
44431;DHT22;30135;47.866;-4.222;2022-09-09T12:32:16;20.80;80.10
44431;DHT22;30135;47.866;-4.222;2022-09-09T12:34:55;20.80;80.50
44431;DHT22;30135;47.866;-4.222;2022-09-09T12:38:01;20.80;80.90
44431;DHT22;30135;47.866;-4.222;2022-09-09T12:40:34;20.80;81.40
44431;DHT22;30135;47.866;-4.222;2022-09-09T12:43:22;20.80;81.20
44431;DHT22;30135;47.866;-4.222;2022-09-09T12:46:04;20.90;81.60
44431;DHT22;30135;47.866;-4.222;2022-09-09T12:48:40;21.00;81.10
44431;DHT22;30135;47.866;-4.222;2022-09-09T12:51:25;20.90;81.20
44431;DHT22;30135;47.866;-4.222;2022-09-09T12:54:01;21.00;80.60
44431;DHT22;30135;47.866;-4.222;2022-09-09T12:56:31;21.00;80.70
44431;DHT22;30135;47.866;-4.222;2022-09-09T12:59:04;21.00;80.70
44431;DHT22;30135;47.866;-4.222;2022-09-09T13:01:32;21.00;80.80
44431;DHT22;30135;47.866;-4.222;2022-09-09T13:04:00;21.10;80.80
44431;DHT22;30135;47.866;-4.222;2022-09-09T13:06:28;21.10;80.90
44431;DHT22;30135;47.866;-4.222;2022-09-09T13:08:59;21.00;80.80
44431;DHT22;30135;47.866;-4.222;2022-09-09T13:11:36;21.00;81.00
44431;DHT22;30135;47.866;-4.222;2022-09-09T13:14:18;20.90;81.10
44431;DHT22;30135;47.866;-4.222;2022-09-09T13:16:57;20.80;81.40
44431;DHT22;30135;47.866;-4.222;2022-09-09T13:19:28;20.70;81.80
44431;DHT22;30135;47.866;-4.222;2022-09-09T13:21:56;20.70;82.00
44431;DHT22;30135;47.866;-4.222;2022-09-09T13:24:31;20.60;81.60
44431;DHT22;30135;47.866;-4.222;2022-09-09T13:27:04;20.60;81.10
44431;DHT22;30135;47.866;-4.222;2022-09-09T13:29:52;20.60;81.10
44431;DHT22;30135;47.866;-4.222;2022-09-09T13:32:24;20.60;80.60
44431;DHT22;30135;47.866;-4.222;2022-09-09T13:35:00;20.60;80.50
44431;DHT22;30135;47.866;-4.222;2022-09-09T13:37:37;20.60;80.30
44431;DHT22;30135;47.866;-4.222;2022-09-09T13:40:05;20.60;79.90
44431;DHT22;30135;47.866;-4.222;2022-09-09T13:42:40;20.60;79.80
44431;DHT22;30135;47.866;-4.222;2022-09-09T13:45:20;20.60;79.00
44431;DHT22;30135;47.866;-4.222;2022-09-09T13:47:47;20.60;78.90
44431;DHT22;30135;47.866;-4.222;2022-09-09T13:52:58;20.50;79.40
44431;DHT22;30135;47.866;-4.222;2022-09-09T13:55:28;20.50;79.40
44431;DHT22;30135;47.866;-4.222;2022-09-09T13:57:59;20.50;79.50
44431;DHT22;30135;47.866;-4.222;2022-09-09T14:00:30;20.50;79.80
44431;DHT22;30135;47.866;-4.222;2022-09-09T14:03:03;20.50;80.00
44431;DHT22;30135;47.866;-4.222;2022-09-09T14:05:32;20.50;80.40
44431;DHT22;30135;47.866;-4.222;2022-09-09T14:08:04;20.40;80.50
44431;DHT22;30135;47.866;-4.222;2022-09-09T14:10:33;20.40;80.60
44431;DHT22;30135;47.866;-4.222;2022-09-09T14:13:05;20.40;80.80
44431;DHT22;30135;47.866;-4.222;2022-09-09T14:15:35;20.40;81.00
44431;DHT22;30135;47.866;-4.222;2022-09-09T14:18:03;20.40;81.10
44431;DHT22;30135;47.866;-4.222;2022-09-09T14:20:30;20.40;81.30
44431;DHT22;30135;47.866;-4.222;2022-09-09T14:22:58;20.40;81.60
44431;DHT22;30135;47.866;-4.222;2022-09-09T14:25:27;20.40;81.60
44431;DHT22;30135;47.866;-4.222;2022-09-09T14:28:04;20.40;81.70
44431;DHT22;30135;47.866;-4.222;2022-09-09T14:30:30;20.30;81.60
44431;DHT22;30135;47.866;-4.222;2022-09-09T14:32:58;20.30;81.50
44431;DHT22;30135;47.866;-4.222;2022-09-09T14:35:26;20.30;81.40
44431;DHT22;30135;47.866;-4.222;2022-09-09T14:37:54;20.30;81.10
44431;DHT22;30135;47.866;-4.222;2022-09-09T14:40:22;20.30;81.10
44431;DHT22;30135;47.866;-4.222;2022-09-09T14:42:48;20.30;80.80
44431;DHT22;30135;47.866;-4.222;2022-09-09T14:45:15;20.20;80.80
44431;DHT22;30135;47.866;-4.222;2022-09-09T14:47:43;20.20;80.90
44431;DHT22;30135;47.866;-4.222;2022-09-09T14:50:11;20.20;80.90
44431;DHT22;30135;47.866;-4.222;2022-09-09T14:52:38;20.20;80.70
44431;DHT22;30135;47.866;-4.222;2022-09-09T14:55:07;20.20;80.60
44431;DHT22;30135;47.866;-4.222;2022-09-09T14:57:34;20.20;80.70
44431;DHT22;30135;47.866;-4.222;2022-09-09T15:00:03;20.20;80.50
44431;DHT22;30135;47.866;-4.222;2022-09-09T15:02:30;20.20;80.50
44431;DHT22;30135;47.866;-4.222;2022-09-09T15:04:56;20.20;80.50
44431;DHT22;30135;47.866;-4.222;2022-09-09T15:07:24;20.20;80.50
44431;DHT22;30135;47.866;-4.222;2022-09-09T15:09:51;20.20;80.60
44431;DHT22;30135;47.866;-4.222;2022-09-09T15:12:19;20.20;80.70
44431;DHT22;30135;47.866;-4.222;2022-09-09T15:14:46;20.20;80.80
44431;DHT22;30135;47.866;-4.222;2022-09-09T15:17:14;20.30;81.10
44431;DHT22;30135;47.866;-4.222;2022-09-09T15:19:42;20.30;81.40
44431;DHT22;30135;47.866;-4.222;2022-09-09T15:22:10;20.30;81.50
44431;DHT22;30135;47.866;-4.222;2022-09-09T15:24:38;20.30;81.40
44431;DHT22;30135;47.866;-4.222;2022-09-09T15:27:05;20.30;81.50
44431;DHT22;30135;47.866;-4.222;2022-09-09T15:29:33;20.30;81.70
44431;DHT22;30135;47.866;-4.222;2022-09-09T15:32:00;20.30;81.80
44431;DHT22;30135;47.866;-4.222;2022-09-09T15:34:27;20.30;82.00
44431;DHT22;30135;47.866;-4.222;2022-09-09T15:36:53;20.30;82.00
44431;DHT22;30135;47.866;-4.222;2022-09-09T15:39:21;20.30;82.10
44431;DHT22;30135;47.866;-4.222;2022-09-09T15:41:48;20.30;82.20
44431;DHT22;30135;47.866;-4.222;2022-09-09T15:44:14;20.30;82.50
44431;DHT22;30135;47.866;-4.222;2022-09-09T15:46:50;20.30;82.80
44431;DHT22;30135;47.866;-4.222;2022-09-09T15:49:23;20.30;83.10
44431;DHT22;30135;47.866;-4.222;2022-09-09T15:51:59;20.30;83.20
44431;DHT22;30135;47.866;-4.222;2022-09-09T15:54:34;20.30;83.40
44431;DHT22;30135;47.866;-4.222;2022-09-09T15:57:05;20.40;83.60
44431;DHT22;30135;47.866;-4.222;2022-09-09T15:59:33;20.40;83.60
44431;DHT22;30135;47.866;-4.222;2022-09-09T16:02:00;20.50;83.50
44431;DHT22;30135;47.866;-4.222;2022-09-09T16:04:28;20.50;83.60
44431;DHT22;30135;47.866;-4.222;2022-09-09T16:07:04;20.50;83.50
44431;DHT22;30135;47.866;-4.222;2022-09-09T16:09:32;20.50;83.30
44431;DHT22;30135;47.866;-4.222;2022-09-09T16:12:04;20.60;83.30
44431;DHT22;30135;47.866;-4.222;2022-09-09T16:14:33;20.50;83.40
44431;DHT22;30135;47.866;-4.222;2022-09-09T16:17:02;20.60;83.50
44431;DHT22;30135;47.866;-4.222;2022-09-09T16:19:30;20.60;83.60
44431;DHT22;30135;47.866;-4.222;2022-09-09T16:21:58;20.60;83.50
44431;DHT22;30135;47.866;-4.222;2022-09-09T16:24:24;20.60;83.60
44431;DHT22;30135;47.866;-4.222;2022-09-09T16:26:52;20.60;83.60
44431;DHT22;30135;47.866;-4.222;2022-09-09T16:29:21;20.60;83.60
44431;DHT22;30135;47.866;-4.222;2022-09-09T16:31:48;20.60;83.90
44431;DHT22;30135;47.866;-4.222;2022-09-09T16:34:17;20.50;83.80
44431;DHT22;30135;47.866;-4.222;2022-09-09T16:36:45;20.60;84.50
44431;DHT22;30135;47.866;-4.222;2022-09-09T16:39:15;20.50;84.00
44431;DHT22;30135;47.866;-4.222;2022-09-09T16:41:43;20.60;84.00
44431;DHT22;30135;47.866;-4.222;2022-09-09T16:44:13;20.60;83.70
44431;DHT22;30135;47.866;-4.222;2022-09-09T16:46:43;20.60;83.50
44431;DHT22;30135;47.866;-4.222;2022-09-09T16:49:11;20.60;83.10
44431;DHT22;30135;47.866;-4.222;2022-09-09T16:51:48;20.60;82.60
44431;DHT22;30135;47.866;-4.222;2022-09-09T16:54:19;20.60;82.50
44431;DHT22;30135;47.866;-4.222;2022-09-09T16:56:47;20.50;82.50
44431;DHT22;30135;47.866;-4.222;2022-09-09T16:59:19;20.60;82.30
44431;DHT22;30135;47.866;-4.222;2022-09-09T17:01:49;20.50;81.90
44431;DHT22;30135;47.866;-4.222;2022-09-09T17:04:26;20.50;81.80
44431;DHT22;30135;47.866;-4.222;2022-09-09T17:06:55;20.50;81.60
44431;DHT22;30135;47.866;-4.222;2022-09-09T17:09:25;20.50;81.40
44431;DHT22;30135;47.866;-4.222;2022-09-09T17:11:57;20.40;81.10
44431;DHT22;30135;47.866;-4.222;2022-09-09T17:14:25;20.40;81.10
44431;DHT22;30135;47.866;-4.222;2022-09-09T17:16:52;20.40;81.10
44431;DHT22;30135;47.866;-4.222;2022-09-09T17:19:18;20.30;80.90
44431;DHT22;30135;47.866;-4.222;2022-09-09T17:21:45;20.30;80.70
44431;DHT22;30135;47.866;-4.222;2022-09-09T17:24:15;20.30;80.40
44431;DHT22;30135;47.866;-4.222;2022-09-09T17:26:41;20.30;80.40
44431;DHT22;30135;47.866;-4.222;2022-09-09T17:29:07;20.30;80.70
44431;DHT22;30135;47.866;-4.222;2022-09-09T17:31:33;20.20;80.70
44431;DHT22;30135;47.866;-4.222;2022-09-09T17:33:59;20.20;80.70
44431;DHT22;30135;47.866;-4.222;2022-09-09T17:36:30;20.20;80.70
44431;DHT22;30135;47.866;-4.222;2022-09-09T17:39:00;20.20;80.90
44431;DHT22;30135;47.866;-4.222;2022-09-09T17:41:31;20.10;81.00
44431;DHT22;30135;47.866;-4.222;2022-09-09T17:44:00;20.20;81.40
44431;DHT22;30135;47.866;-4.222;2022-09-09T17:46:29;20.10;81.30
44431;DHT22;30135;47.866;-4.222;2022-09-09T17:49:02;20.10;81.30
44431;DHT22;30135;47.866;-4.222;2022-09-09T17:51:32;20.10;81.50
44431;DHT22;30135;47.866;-4.222;2022-09-09T17:54:04;20.10;81.60
44431;DHT22;30135;47.866;-4.222;2022-09-09T17:56:36;20.10;81.70
44431;DHT22;30135;47.866;-4.222;2022-09-09T17:59:04;20.00;81.90
44431;DHT22;30135;47.866;-4.222;2022-09-09T18:01:34;20.00;82.10